Cuyler, New York
Current Conditions -  °F | °C
As of 3:55 PM on Thursday 20 Nov 2014 (Local Time) from KN03 Reporting Station
Light Snow Light Snow  
Wind Chill: 27°   Ceiling: 2000
Heat Index: 27°   Visibility: 5mi
Dew Point: 23°   Wind: 0mph
Humidity: 86%   Direction: NA
Pressure: 29.83"   Gusts: NA
Location:  42.7168°N, 75.9613°W
Report Text: KN03 202055Z AUTO 00000KT 5SM -SN SCT010 BKN020 OVC037 M03/M05 A2983 RMK AO2
Loading
Personal Weather Stations






























Interactive Weather Map New forecast layout! Learn more

10-Day Weather Forecast

Advertisements
Track Severe Weather on mobile